Etusivu
METAR-TAF:

METAR-TAF

Lentoasemat :

Andøya, Norja

Leveyspiiri: 69-18N, Pituuspiiri: 016-09E, korkeus merenpinnasta: 1 m

Tämänhetkinen sää

Tämä raportti tehtiin 25 minuuttia sitten, kello 14.50 UTC
Tuuli 9 kn idästä/koillisesta
Lämpötila 14°C
Kosteus 88%
Ilmanpaine 1024 hPa
Näkyvyys 10 km tai enemmän
ei pilviä alle 1500 m:ssä eikä cumulonimbus-pilviä

METAR: ENAN 111450Z 06009KT CAVOK 14/12 Q1024

Aika: 17:15 (15:15 UTC)

Sääennuste

Ennuste voimassa 11. päivästä klo 12 UTC - 12. päivään klo 12 UTC
Tuuli 8 kn koillisesta
Näkyvyys 10 km tai enemmän
ei pilviä alle 1500 m:ssä eikä cumulonimbus-pilviä
Todennäköisyys 30%
12. päivästä klo 03 UTC - 12. päivään klo 08 UTC
Hajonneita pilviä 1200 ft:n korkeudessa

TAF: ENAN 1112/1212 05008KT CAVOK PROB30 1203/1208 BKN012

Säähavainnot ja -ennusteet yli 4000 lentoasemalta (METAR- ja TAF-raportit).

Käytössä olevat sääasemat on merkitty karttaan keltaisilla ja punaisilla pisteillä.

Aseta hiiri pisteen päälle nähdäksesi sääaseman nimen.

Klikkaa sitten nähdäksesi säähavainnot ja -ennusteet.

Kartan vaihtaminen: klikkaa mustalla rastilla varustettuja vihreitä pisteitä, niin voit zoomata sisään; viivalla varustettua vihreää pistettä, niin voit zoomata ulos tai vihreitä nuolia, niin pääset viereisille kartoille.


METAR-TAF: